sensor_id;sensor_type;location;lat;lon;timestamp;temperature;humidity
17938;DHT22;16051;53.024;8.630;2022-08-19T00:03:38;18.90;99.90
17938;DHT22;16051;53.024;8.630;2022-08-19T00:07:41;18.90;99.90
17938;DHT22;16051;53.024;8.630;2022-08-19T00:11:52;18.80;99.90
17938;DHT22;16051;53.024;8.630;2022-08-19T00:15:57;18.80;99.90
17938;DHT22;16051;53.024;8.630;2022-08-19T00:20:01;18.80;99.90
17938;DHT22;16051;53.024;8.630;2022-08-19T00:24:04;18.80;99.90
17938;DHT22;16051;53.024;8.630;2022-08-19T00:28:07;18.80;99.90
17938;DHT22;16051;53.024;8.630;2022-08-19T00:32:13;18.80;99.90
17938;DHT22;16051;53.024;8.630;2022-08-19T00:36:16;18.80;99.90
17938;DHT22;16051;53.024;8.630;2022-08-19T00:40:18;18.80;99.90
17938;DHT22;16051;53.024;8.630;2022-08-19T00:44:23;18.70;99.90
17938;DHT22;16051;53.024;8.630;2022-08-19T00:48:28;18.70;99.90
17938;DHT22;16051;53.024;8.630;2022-08-19T00:52:33;18.70;99.90
17938;DHT22;16051;53.024;8.630;2022-08-19T00:56:39;18.70;99.90
17938;DHT22;16051;53.024;8.630;2022-08-19T01:00:42;18.70;99.90
17938;DHT22;16051;53.024;8.630;2022-08-19T01:04:45;18.70;99.90
17938;DHT22;16051;53.024;8.630;2022-08-19T01:08:47;18.70;99.90
17938;DHT22;16051;53.024;8.630;2022-08-19T01:12:51;18.70;99.90
17938;DHT22;16051;53.024;8.630;2022-08-19T01:21:31;18.60;99.90
17938;DHT22;16051;53.024;8.630;2022-08-19T01:25:42;18.60;99.90
17938;DHT22;16051;53.024;8.630;2022-08-19T01:29:48;18.60;99.90
17938;DHT22;16051;53.024;8.630;2022-08-19T01:33:52;18.60;99.90
17938;DHT22;16051;53.024;8.630;2022-08-19T01:37:58;18.50;99.90
17938;DHT22;16051;53.024;8.630;2022-08-19T01:42:04;18.40;99.90
17938;DHT22;16051;53.024;8.630;2022-08-19T01:46:07;18.40;99.90
17938;DHT22;16051;53.024;8.630;2022-08-19T01:50:11;18.30;99.90
17938;DHT22;16051;53.024;8.630;2022-08-19T01:54:16;18.20;99.90
17938;DHT22;16051;53.024;8.630;2022-08-19T01:58:26;18.20;99.90
17938;DHT22;16051;53.024;8.630;2022-08-19T02:02:46;18.10;99.90
17938;DHT22;16051;53.024;8.630;2022-08-19T02:06:48;18.10;99.90
17938;DHT22;16051;53.024;8.630;2022-08-19T02:10:51;18.10;99.90
17938;DHT22;16051;53.024;8.630;2022-08-19T02:14:54;18.10;99.90
17938;DHT22;16051;53.024;8.630;2022-08-19T02:18:57;18.10;99.90
17938;DHT22;16051;53.024;8.630;2022-08-19T02:23:01;18.00;99.90
17938;DHT22;16051;53.024;8.630;2022-08-19T02:27:03;18.00;99.90
17938;DHT22;16051;53.024;8.630;2022-08-19T02:31:11;18.00;99.90
17938;DHT22;16051;53.024;8.630;2022-08-19T02:35:15;17.90;99.90
17938;DHT22;16051;53.024;8.630;2022-08-19T02:39:18;17.90;99.90
17938;DHT22;16051;53.024;8.630;2022-08-19T02:43:21;17.80;99.90
17938;DHT22;16051;53.024;8.630;2022-08-19T02:47:25;17.80;99.90
17938;DHT22;16051;53.024;8.630;2022-08-19T02:51:47;17.70;99.90
17938;DHT22;16051;53.024;8.630;2022-08-19T02:55:50;17.70;99.90
17938;DHT22;16051;53.024;8.630;2022-08-19T02:59:52;17.60;99.90
17938;DHT22;16051;53.024;8.630;2022-08-19T03:03:58;17.50;99.90
17938;DHT22;16051;53.024;8.630;2022-08-19T03:08:02;17.50;99.90
17938;DHT22;16051;53.024;8.630;2022-08-19T03:12:06;17.50;99.90
17938;DHT22;16051;53.024;8.630;2022-08-19T03:16:10;17.40;99.90
17938;DHT22;16051;53.024;8.630;2022-08-19T03:20:14;17.40;99.90
17938;DHT22;16051;53.024;8.630;2022-08-19T03:24:17;17.40;99.90
17938;DHT22;16051;53.024;8.630;2022-08-19T03:28:20;17.30;99.90
17938;DHT22;16051;53.024;8.630;2022-08-19T03:32:22;17.30;99.90
17938;DHT22;16051;53.024;8.630;2022-08-19T03:37:03;17.30;99.90
17938;DHT22;16051;53.024;8.630;2022-08-19T03:41:11;17.20;99.90
17938;DHT22;16051;53.024;8.630;2022-08-19T03:45:16;17.20;99.90
17938;DHT22;16051;53.024;8.630;2022-08-19T03:49:19;17.10;99.90
17938;DHT22;16051;53.024;8.630;2022-08-19T03:53:24;17.10;99.90
17938;DHT22;16051;53.024;8.630;2022-08-19T03:57:26;17.00;99.90
17938;DHT22;16051;53.024;8.630;2022-08-19T04:01:37;17.00;99.90
17938;DHT22;16051;53.024;8.630;2022-08-19T04:05:39;17.00;99.90
17938;DHT22;16051;53.024;8.630;2022-08-19T04:09:42;17.00;99.90
17938;DHT22;16051;53.024;8.630;2022-08-19T04:13:44;16.90;99.90
17938;DHT22;16051;53.024;8.630;2022-08-19T04:17:46;16.90;99.90
17938;DHT22;16051;53.024;8.630;2022-08-19T04:21:52;16.90;99.90
17938;DHT22;16051;53.024;8.630;2022-08-19T04:25:57;16.80;99.90
17938;DHT22;16051;53.024;8.630;2022-08-19T04:29:59;16.90;99.90
17938;DHT22;16051;53.024;8.630;2022-08-19T04:34:05;16.80;99.90
17938;DHT22;16051;53.024;8.630;2022-08-19T04:38:08;16.90;99.90
17938;DHT22;16051;53.024;8.630;2022-08-19T04:42:14;16.80;99.90
17938;DHT22;16051;53.024;8.630;2022-08-19T04:46:35;16.90;99.90
17938;DHT22;16051;53.024;8.630;2022-08-19T04:50:40;16.90;99.90
17938;DHT22;16051;53.024;8.630;2022-08-19T04:54:43;16.90;99.90
17938;DHT22;16051;53.024;8.630;2022-08-19T04:58:48;16.90;99.90
17938;DHT22;16051;53.024;8.630;2022-08-19T05:02:52;16.90;99.90
17938;DHT22;16051;53.024;8.630;2022-08-19T05:06:54;16.90;99.90
17938;DHT22;16051;53.024;8.630;2022-08-19T05:11:20;17.00;99.90
17938;DHT22;16051;53.024;8.630;2022-08-19T05:15:26;16.90;99.90
17938;DHT22;16051;53.024;8.630;2022-08-19T05:19:28;16.90;99.90
17938;DHT22;16051;53.024;8.630;2022-08-19T05:24:03;17.00;99.90
17938;DHT22;16051;53.024;8.630;2022-08-19T05:28:09;17.00;99.90
17938;DHT22;16051;53.024;8.630;2022-08-19T05:32:12;17.00;99.90
17938;DHT22;16051;53.024;8.630;2022-08-19T05:36:16;17.00;99.90
17938;DHT22;16051;53.024;8.630;2022-08-19T05:40:20;17.00;99.90
17938;DHT22;16051;53.024;8.630;2022-08-19T05:44:24;17.00;99.90
17938;DHT22;16051;53.024;8.630;2022-08-19T05:48:27;17.00;99.90
17938;DHT22;16051;53.024;8.630;2022-08-19T05:52:30;17.00;99.90
17938;DHT22;16051;53.024;8.630;2022-08-19T05:56:50;17.10;99.90
17938;DHT22;16051;53.024;8.630;2022-08-19T06:00:53;17.00;99.90
17938;DHT22;16051;53.024;8.630;2022-08-19T06:04:56;17.10;99.90
17938;DHT22;16051;53.024;8.630;2022-08-19T06:08:58;17.10;99.90
17938;DHT22;16051;53.024;8.630;2022-08-19T06:13:01;17.10;99.90
17938;DHT22;16051;53.024;8.630;2022-08-19T06:17:03;17.10;99.90
17938;DHT22;16051;53.024;8.630;2022-08-19T06:21:07;17.10;99.90
17938;DHT22;16051;53.024;8.630;2022-08-19T06:25:10;17.10;99.90
17938;DHT22;16051;53.024;8.630;2022-08-19T06:29:16;17.20;99.90
17938;DHT22;16051;53.024;8.630;2022-08-19T06:33:19;17.20;99.90
17938;DHT22;16051;53.024;8.630;2022-08-19T06:37:23;17.20;99.90
17938;DHT22;16051;53.024;8.630;2022-08-19T06:41:26;17.70;99.90
17938;DHT22;16051;53.024;8.630;2022-08-19T06:45:28;17.60;99.90
17938;DHT22;16051;53.024;8.630;2022-08-19T06:49:31;17.60;99.90
17938;DHT22;16051;53.024;8.630;2022-08-19T06:53:35;17.50;99.90
17938;DHT22;16051;53.024;8.630;2022-08-19T06:57:37;17.70;99.90
17938;DHT22;16051;53.024;8.630;2022-08-19T07:01:41;17.60;99.90
17938;DHT22;16051;53.024;8.630;2022-08-19T07:05:46;17.80;99.90
17938;DHT22;16051;53.024;8.630;2022-08-19T07:09:50;17.90;99.90
17938;DHT22;16051;53.024;8.630;2022-08-19T07:13:53;18.00;99.90
17938;DHT22;16051;53.024;8.630;2022-08-19T07:17:56;18.20;99.90
17938;DHT22;16051;53.024;8.630;2022-08-19T07:22:07;18.30;99.90
17938;DHT22;16051;53.024;8.630;2022-08-19T07:26:15;18.40;99.90
17938;DHT22;16051;53.024;8.630;2022-08-19T07:30:19;18.50;99.90
17938;DHT22;16051;53.024;8.630;2022-08-19T07:34:24;18.70;99.90
17938;DHT22;16051;53.024;8.630;2022-08-19T07:38:26;18.90;99.90
17938;DHT22;16051;53.024;8.630;2022-08-19T07:42:30;19.20;99.90
17938;DHT22;16051;53.024;8.630;2022-08-19T07:46:33;19.50;99.90
17938;DHT22;16051;53.024;8.630;2022-08-19T07:50:37;19.90;99.90
17938;DHT22;16051;53.024;8.630;2022-08-19T07:54:54;20.40;99.90
17938;DHT22;16051;53.024;8.630;2022-08-19T07:59:17;20.40;99.90
17938;DHT22;16051;53.024;8.630;2022-08-19T08:03:48;20.40;99.90
17938;DHT22;16051;53.024;8.630;2022-08-19T08:08:21;20.30;99.90
17938;DHT22;16051;53.024;8.630;2022-08-19T08:12:41;20.20;99.90
17938;DHT22;16051;53.024;8.630;2022-08-19T08:17:19;20.30;99.90
17938;DHT22;16051;53.024;8.630;2022-08-19T08:21:23;20.30;99.90
17938;DHT22;16051;53.024;8.630;2022-08-19T08:25:25;20.40;99.90
17938;DHT22;16051;53.024;8.630;2022-08-19T08:29:45;20.30;99.90
17938;DHT22;16051;53.024;8.630;2022-08-19T08:33:55;20.40;99.90
17938;DHT22;16051;53.024;8.630;2022-08-19T08:37:57;20.40;99.90
17938;DHT22;16051;53.024;8.630;2022-08-19T08:42:08;20.40;99.90
17938;DHT22;16051;53.024;8.630;2022-08-19T08:46:33;20.70;99.90
17938;DHT22;16051;53.024;8.630;2022-08-19T08:50:49;20.90;99.90
17938;DHT22;16051;53.024;8.630;2022-08-19T08:54:57;20.80;99.90
17938;DHT22;16051;53.024;8.630;2022-08-19T08:59:04;20.80;99.90
17938;DHT22;16051;53.024;8.630;2022-08-19T09:03:18;20.90;99.90
17938;DHT22;16051;53.024;8.630;2022-08-19T09:07:31;21.10;99.90
17938;DHT22;16051;53.024;8.630;2022-08-19T09:11:57;21.00;99.90
17938;DHT22;16051;53.024;8.630;2022-08-19T09:16:07;21.10;99.90
17938;DHT22;16051;53.024;8.630;2022-08-19T09:20:19;21.20;99.90
17938;DHT22;16051;53.024;8.630;2022-08-19T09:24:24;21.00;99.90
17938;DHT22;16051;53.024;8.630;2022-08-19T09:28:36;20.90;99.90
17938;DHT22;16051;53.024;8.630;2022-08-19T09:32:38;21.30;99.90
17938;DHT22;16051;53.024;8.630;2022-08-19T09:36:42;21.60;99.90
17938;DHT22;16051;53.024;8.630;2022-08-19T09:40:46;21.70;99.90
17938;DHT22;16051;53.024;8.630;2022-08-19T09:44:48;22.70;99.90
17938;DHT22;16051;53.024;8.630;2022-08-19T09:49:02;22.10;99.90
17938;DHT22;16051;53.024;8.630;2022-08-19T09:53:06;22.80;99.90
17938;DHT22;16051;53.024;8.630;2022-08-19T09:57:10;23.30;99.90
17938;DHT22;16051;53.024;8.630;2022-08-19T10:01:16;24.00;99.90
17938;DHT22;16051;53.024;8.630;2022-08-19T10:05:20;24.40;99.90
17938;DHT22;16051;53.024;8.630;2022-08-19T10:09:41;25.10;99.90
17938;DHT22;16051;53.024;8.630;2022-08-19T10:13:46;25.90;98.30
17938;DHT22;16051;53.024;8.630;2022-08-19T10:17:49;26.20;97.80
17938;DHT22;16051;53.024;8.630;2022-08-19T10:21:51;25.90;93.40
17938;DHT22;16051;53.024;8.630;2022-08-19T10:26:16;26.00;93.80
17938;DHT22;16051;53.024;8.630;2022-08-19T10:30:21;27.00;93.70
17938;DHT22;16051;53.024;8.630;2022-08-19T10:34:23;27.20;92.50
17938;DHT22;16051;53.024;8.630;2022-08-19T10:38:26;27.80;91.60
17938;DHT22;16051;53.024;8.630;2022-08-19T10:42:31;28.00;89.30
17938;DHT22;16051;53.024;8.630;2022-08-19T10:46:38;28.50;90.60
17938;DHT22;16051;53.024;8.630;2022-08-19T10:50:43;28.70;88.40
17938;DHT22;16051;53.024;8.630;2022-08-19T10:55:04;28.80;83.10
17938;DHT22;16051;53.024;8.630;2022-08-19T10:59:26;29.10;83.00
17938;DHT22;16051;53.024;8.630;2022-08-19T11:03:31;29.40;80.60
17938;DHT22;16051;53.024;8.630;2022-08-19T11:07:33;29.70;72.60
17938;DHT22;16051;53.024;8.630;2022-08-19T11:11:36;29.70;73.10
17938;DHT22;16051;53.024;8.630;2022-08-19T11:15:41;29.50;75.20
17938;DHT22;16051;53.024;8.630;2022-08-19T11:19:46;28.80;74.20
17938;DHT22;16051;53.024;8.630;2022-08-19T11:23:50;29.00;76.70
17938;DHT22;16051;53.024;8.630;2022-08-19T11:27:53;29.10;76.30
17938;DHT22;16051;53.024;8.630;2022-08-19T11:32:27;29.00;74.20
17938;DHT22;16051;53.024;8.630;2022-08-19T11:36:31;28.90;76.10
17938;DHT22;16051;53.024;8.630;2022-08-19T11:40:33;28.80;71.90
17938;DHT22;16051;53.024;8.630;2022-08-19T11:44:35;28.90;75.70
17938;DHT22;16051;53.024;8.630;2022-08-19T11:48:43;29.10;73.90
17938;DHT22;16051;53.024;8.630;2022-08-19T11:52:47;29.00;75.90
17938;DHT22;16051;53.024;8.630;2022-08-19T11:56:50;28.50;77.00
17938;DHT22;16051;53.024;8.630;2022-08-19T12:00:52;28.40;74.70
17938;DHT22;16051;53.024;8.630;2022-08-19T12:10:10;28.30;74.30
17938;DHT22;16051;53.024;8.630;2022-08-19T12:14:13;29.00;74.40
17938;DHT22;16051;53.024;8.630;2022-08-19T12:18:15;29.00;69.00
17938;DHT22;16051;53.024;8.630;2022-08-19T12:22:18;29.30;64.10
17938;DHT22;16051;53.024;8.630;2022-08-19T12:26:23;29.60;62.90
17938;DHT22;16051;53.024;8.630;2022-08-19T12:30:26;29.60;62.50
17938;DHT22;16051;53.024;8.630;2022-08-19T12:34:29;29.90;62.80
17938;DHT22;16051;53.024;8.630;2022-08-19T12:38:32;30.30;62.80
17938;DHT22;16051;53.024;8.630;2022-08-19T12:42:37;31.50;60.90
17938;DHT22;16051;53.024;8.630;2022-08-19T12:46:41;33.30;59.90
17938;DHT22;16051;53.024;8.630;2022-08-19T12:50:44;32.40;58.50
17938;DHT22;16051;53.024;8.630;2022-08-19T12:54:47;31.60;59.80
17938;DHT22;16051;53.024;8.630;2022-08-19T12:58:51;31.40;63.10
17938;DHT22;16051;53.024;8.630;2022-08-19T13:02:55;31.10;61.00
17938;DHT22;16051;53.024;8.630;2022-08-19T13:06:58;30.90;62.10
17938;DHT22;16051;53.024;8.630;2022-08-19T13:11:08;31.00;63.90
17938;DHT22;16051;53.024;8.630;2022-08-19T13:15:15;30.60;64.10
17938;DHT22;16051;53.024;8.630;2022-08-19T13:19:21;30.60;64.60
17938;DHT22;16051;53.024;8.630;2022-08-19T13:23:24;30.90;64.60
17938;DHT22;16051;53.024;8.630;2022-08-19T13:27:26;30.80;63.80
17938;DHT22;16051;53.024;8.630;2022-08-19T13:31:31;30.90;61.50
17938;DHT22;16051;53.024;8.630;2022-08-19T13:36:00;30.90;60.80
17938;DHT22;16051;53.024;8.630;2022-08-19T13:40:05;31.00;62.10
17938;DHT22;16051;53.024;8.630;2022-08-19T13:44:08;31.40;62.30
17938;DHT22;16051;53.024;8.630;2022-08-19T13:48:11;31.40;61.40
17938;DHT22;16051;53.024;8.630;2022-08-19T13:52:14;31.50;62.60
17938;DHT22;16051;53.024;8.630;2022-08-19T13:56:18;31.80;61.50
17938;DHT22;16051;53.024;8.630;2022-08-19T14:00:22;31.30;62.10
17938;DHT22;16051;53.024;8.630;2022-08-19T14:04:28;31.40;62.30
17938;DHT22;16051;53.024;8.630;2022-08-19T14:08:30;31.40;61.70
17938;DHT22;16051;53.024;8.630;2022-08-19T14:12:33;31.30;62.30
17938;DHT22;16051;53.024;8.630;2022-08-19T14:16:36;31.50;64.40
17938;DHT22;16051;53.024;8.630;2022-08-19T14:20:41;31.50;62.70
17938;DHT22;16051;53.024;8.630;2022-08-19T14:24:43;31.00;63.70
17938;DHT22;16051;53.024;8.630;2022-08-19T14:28:45;31.40;64.30
17938;DHT22;16051;53.024;8.630;2022-08-19T14:32:48;31.40;65.10
17938;DHT22;16051;53.024;8.630;2022-08-19T14:36:51;31.50;65.20
17938;DHT22;16051;53.024;8.630;2022-08-19T14:40:54;30.80;66.30
17938;DHT22;16051;53.024;8.630;2022-08-19T14:45:03;30.70;67.10
17938;DHT22;16051;53.024;8.630;2022-08-19T14:49:07;30.80;68.80
17938;DHT22;16051;53.024;8.630;2022-08-19T14:53:16;30.80;67.90
17938;DHT22;16051;53.024;8.630;2022-08-19T14:57:37;31.20;66.90
17938;DHT22;16051;53.024;8.630;2022-08-19T15:01:48;31.00;66.80
17938;DHT22;16051;53.024;8.630;2022-08-19T15:06:06;30.70;66.80
17938;DHT22;16051;53.024;8.630;2022-08-19T15:10:37;30.30;67.50
17938;DHT22;16051;53.024;8.630;2022-08-19T15:14:40;30.50;67.10
17938;DHT22;16051;53.024;8.630;2022-08-19T15:18:46;31.00;66.10
17938;DHT22;16051;53.024;8.630;2022-08-19T15:22:52;31.00;67.50
17938;DHT22;16051;53.024;8.630;2022-08-19T15:27:02;30.90;65.80
17938;DHT22;16051;53.024;8.630;2022-08-19T15:31:05;30.70;65.90
17938;DHT22;16051;53.024;8.630;2022-08-19T15:35:08;30.30;67.10
17938;DHT22;16051;53.024;8.630;2022-08-19T15:39:10;30.50;67.90
17938;DHT22;16051;53.024;8.630;2022-08-19T15:43:27;30.90;67.60
17938;DHT22;16051;53.024;8.630;2022-08-19T15:47:29;31.30;64.90
17938;DHT22;16051;53.024;8.630;2022-08-19T15:51:34;31.20;63.50
17938;DHT22;16051;53.024;8.630;2022-08-19T15:55:44;31.40;64.00
17938;DHT22;16051;53.024;8.630;2022-08-19T15:59:49;31.70;63.90
17938;DHT22;16051;53.024;8.630;2022-08-19T16:04:09;30.90;64.90
17938;DHT22;16051;53.024;8.630;2022-08-19T16:08:28;31.00;64.60
17938;DHT22;16051;53.024;8.630;2022-08-19T16:12:30;31.20;64.20
17938;DHT22;16051;53.024;8.630;2022-08-19T16:16:35;30.70;64.80
17938;DHT22;16051;53.024;8.630;2022-08-19T16:20:38;30.80;65.60
17938;DHT22;16051;53.024;8.630;2022-08-19T16:24:41;30.40;66.90
17938;DHT22;16051;53.024;8.630;2022-08-19T16:28:44;30.10;66.60
17938;DHT22;16051;53.024;8.630;2022-08-19T16:32:48;29.80;67.60
17938;DHT22;16051;53.024;8.630;2022-08-19T16:36:50;29.70;67.80
17938;DHT22;16051;53.024;8.630;2022-08-19T16:40:53;29.90;68.10
17938;DHT22;16051;53.024;8.630;2022-08-19T16:44:56;29.60;69.20
17938;DHT22;16051;53.024;8.630;2022-08-19T16:49:00;29.50;70.40
17938;DHT22;16051;53.024;8.630;2022-08-19T16:53:02;29.90;68.10
17938;DHT22;16051;53.024;8.630;2022-08-19T16:57:11;29.60;67.80
17938;DHT22;16051;53.024;8.630;2022-08-19T17:01:13;29.00;69.60
17938;DHT22;16051;53.024;8.630;2022-08-19T17:05:17;28.80;70.60
17938;DHT22;16051;53.024;8.630;2022-08-19T17:09:19;28.90;71.70
17938;DHT22;16051;53.024;8.630;2022-08-19T17:13:23;28.70;71.90
17938;DHT22;16051;53.024;8.630;2022-08-19T17:17:26;28.60;72.10
17938;DHT22;16051;53.024;8.630;2022-08-19T17:21:43;28.30;72.60
17938;DHT22;16051;53.024;8.630;2022-08-19T17:25:45;28.20;72.50
17938;DHT22;16051;53.024;8.630;2022-08-19T17:29:47;28.00;74.60
17938;DHT22;16051;53.024;8.630;2022-08-19T17:33:50;27.80;73.20
17938;DHT22;16051;53.024;8.630;2022-08-19T17:37:54;27.60;72.90
17938;DHT22;16051;53.024;8.630;2022-08-19T17:41:56;27.50;73.20
17938;DHT22;16051;53.024;8.630;2022-08-19T17:46:01;27.40;74.90
17938;DHT22;16051;53.024;8.630;2022-08-19T17:50:06;27.20;76.30
17938;DHT22;16051;53.024;8.630;2022-08-19T17:54:13;27.10;77.90
17938;DHT22;16051;53.024;8.630;2022-08-19T17:58:18;26.90;77.00
17938;DHT22;16051;53.024;8.630;2022-08-19T18:02:20;26.70;76.80
17938;DHT22;16051;53.024;8.630;2022-08-19T18:06:23;26.60;78.30
17938;DHT22;16051;53.024;8.630;2022-08-19T18:10:52;26.40;79.00
17938;DHT22;16051;53.024;8.630;2022-08-19T18:14:57;26.30;79.50
17938;DHT22;16051;53.024;8.630;2022-08-19T18:18:59;26.10;81.80
17938;DHT22;16051;53.024;8.630;2022-08-19T18:23:02;25.90;82.50
17938;DHT22;16051;53.024;8.630;2022-08-19T18:27:13;25.80;85.00
17938;DHT22;16051;53.024;8.630;2022-08-19T18:31:16;25.70;87.70
17938;DHT22;16051;53.024;8.630;2022-08-19T18:35:20;25.70;85.60
17938;DHT22;16051;53.024;8.630;2022-08-19T18:39:27;25.80;86.00
17938;DHT22;16051;53.024;8.630;2022-08-19T18:43:48;25.70;86.90
17938;DHT22;16051;53.024;8.630;2022-08-19T18:48:07;25.60;87.70
17938;DHT22;16051;53.024;8.630;2022-08-19T18:52:27;25.50;89.00
17938;DHT22;16051;53.024;8.630;2022-08-19T18:56:38;25.40;90.10
17938;DHT22;16051;53.024;8.630;2022-08-19T19:00:45;25.30;90.60
17938;DHT22;16051;53.024;8.630;2022-08-19T19:04:48;25.10;90.90
17938;DHT22;16051;53.024;8.630;2022-08-19T19:08:51;25.00;91.10
17938;DHT22;16051;53.024;8.630;2022-08-19T19:12:54;24.90;91.60
17938;DHT22;16051;53.024;8.630;2022-08-19T19:16:59;24.80;92.30
17938;DHT22;16051;53.024;8.630;2022-08-19T19:21:03;24.60;91.90
17938;DHT22;16051;53.024;8.630;2022-08-19T19:25:05;24.50;92.20
17938;DHT22;16051;53.024;8.630;2022-08-19T19:29:11;24.40;92.40
17938;DHT22;16051;53.024;8.630;2022-08-19T19:33:33;24.20;92.90
17938;DHT22;16051;53.024;8.630;2022-08-19T19:37:36;24.10;93.30
17938;DHT22;16051;53.024;8.630;2022-08-19T19:41:38;24.00;93.70
17938;DHT22;16051;53.024;8.630;2022-08-19T19:45:40;23.90;94.20
17938;DHT22;16051;53.024;8.630;2022-08-19T19:49:44;23.80;94.60
17938;DHT22;16051;53.024;8.630;2022-08-19T19:53:46;23.70;94.90
17938;DHT22;16051;53.024;8.630;2022-08-19T19:57:49;23.60;95.40
17938;DHT22;16051;53.024;8.630;2022-08-19T20:01:52;23.50;96.00
17938;DHT22;16051;53.024;8.630;2022-08-19T20:05:57;23.40;96.30
17938;DHT22;16051;53.024;8.630;2022-08-19T20:09:59;23.30;96.70
17938;DHT22;16051;53.024;8.630;2022-08-19T20:14:07;23.20;97.00
17938;DHT22;16051;53.024;8.630;2022-08-19T20:18:12;23.20;97.40
17938;DHT22;16051;53.024;8.630;2022-08-19T20:22:36;23.10;97.70
17938;DHT22;16051;53.024;8.630;2022-08-19T20:26:41;23.10;98.00
17938;DHT22;16051;53.024;8.630;2022-08-19T20:30:46;23.00;98.40
17938;DHT22;16051;53.024;8.630;2022-08-19T20:34:48;22.90;98.50
17938;DHT22;16051;53.024;8.630;2022-08-19T20:38:52;22.90;99.10
17938;DHT22;16051;53.024;8.630;2022-08-19T20:42:54;22.80;99.60
17938;DHT22;16051;53.024;8.630;2022-08-19T20:46:58;22.80;99.90
17938;DHT22;16051;53.024;8.630;2022-08-19T20:51:00;22.70;99.90
17938;DHT22;16051;53.024;8.630;2022-08-19T20:55:04;22.60;99.90
17938;DHT22;16051;53.024;8.630;2022-08-19T20:59:07;22.50;99.90
17938;DHT22;16051;53.024;8.630;2022-08-19T21:03:10;22.40;99.90
17938;DHT22;16051;53.024;8.630;2022-08-19T21:07:14;22.30;99.90
17938;DHT22;16051;53.024;8.630;2022-08-19T21:11:18;22.20;99.90
17938;DHT22;16051;53.024;8.630;2022-08-19T21:15:20;22.20;99.90
17938;DHT22;16051;53.024;8.630;2022-08-19T21:19:24;22.10;99.90
17938;DHT22;16051;53.024;8.630;2022-08-19T21:23:27;22.10;99.90
17938;DHT22;16051;53.024;8.630;2022-08-19T21:28:03;22.00;99.90
17938;DHT22;16051;53.024;8.630;2022-08-19T21:32:05;22.00;99.90
17938;DHT22;16051;53.024;8.630;2022-08-19T21:36:10;22.00;99.90
17938;DHT22;16051;53.024;8.630;2022-08-19T21:40:12;21.90;99.90
17938;DHT22;16051;53.024;8.630;2022-08-19T21:44:16;21.90;99.90
17938;DHT22;16051;53.024;8.630;2022-08-19T21:48:18;21.90;99.90
17938;DHT22;16051;53.024;8.630;2022-08-19T21:52:21;21.90;99.90
17938;DHT22;16051;53.024;8.630;2022-08-19T21:56:24;21.80;99.90
17938;DHT22;16051;53.024;8.630;2022-08-19T22:00:31;21.90;99.90
17938;DHT22;16051;53.024;8.630;2022-08-19T22:04:34;21.80;99.90
17938;DHT22;16051;53.024;8.630;2022-08-19T22:08:39;21.80;99.90
17938;DHT22;16051;53.024;8.630;2022-08-19T22:12:41;21.80;99.90
17938;DHT22;16051;53.024;8.630;2022-08-19T22:21:33;21.80;99.90
17938;DHT22;16051;53.024;8.630;2022-08-19T22:25:39;21.80;99.90
17938;DHT22;16051;53.024;8.630;2022-08-19T22:29:45;21.80;99.90
17938;DHT22;16051;53.024;8.630;2022-08-19T22:33:47;21.70;99.90
17938;DHT22;16051;53.024;8.630;2022-08-19T22:37:53;21.70;99.90
17938;DHT22;16051;53.024;8.630;2022-08-19T22:41:55;21.70;99.90
17938;DHT22;16051;53.024;8.630;2022-08-19T22:45:58;21.70;99.90
17938;DHT22;16051;53.024;8.630;2022-08-19T22:50:03;21.70;99.90
17938;DHT22;16051;53.024;8.630;2022-08-19T22:54:08;21.80;99.90
17938;DHT22;16051;53.024;8.630;2022-08-19T22:58:10;21.70;99.90
17938;DHT22;16051;53.024;8.630;2022-08-19T23:02:26;21.70;99.90
17938;DHT22;16051;53.024;8.630;2022-08-19T23:06:31;21.70;99.90
17938;DHT22;16051;53.024;8.630;2022-08-19T23:10:34;21.70;99.90
17938;DHT22;16051;53.024;8.630;2022-08-19T23:14:39;21.60;99.90
17938;DHT22;16051;53.024;8.630;2022-08-19T23:18:42;21.60;99.90
17938;DHT22;16051;53.024;8.630;2022-08-19T23:22:46;21.60;99.90
17938;DHT22;16051;53.024;8.630;2022-08-19T23:26:50;21.60;99.90
17938;DHT22;16051;53.024;8.630;2022-08-19T23:31:10;21.60;99.90
17938;DHT22;16051;53.024;8.630;2022-08-19T23:35:13;21.60;99.90
17938;DHT22;16051;53.024;8.630;2022-08-19T23:39:15;21.50;99.90
17938;DHT22;16051;53.024;8.630;2022-08-19T23:43:19;21.60;99.90
17938;DHT22;16051;53.024;8.630;2022-08-19T23:47:21;21.50;99.90
17938;DHT22;16051;53.024;8.630;2022-08-19T23:51:24;21.50;99.90
17938;DHT22;16051;53.024;8.630;2022-08-19T23:55:28;21.50;99.90
17938;DHT22;16051;53.024;8.630;2022-08-19T23:59:34;21.50;99.90
